createdAt,value
2019-04-06T00:01:30.222Z,108.37
2019-04-06T00:03:59.658Z,110.57
2019-04-06T00:06:28.840Z,107.37
2019-04-06T00:08:58.262Z,110.40
2019-04-06T00:11:27.446Z,112.93
2019-04-06T00:13:56.658Z,117.17
2019-04-06T00:16:25.891Z,112.53
2019-04-06T00:18:55.278Z,115.23
2019-04-06T00:21:24.742Z,115.63
2019-04-06T00:23:53.725Z,116.03
2019-04-06T00:26:23.449Z,107.17
2019-04-06T00:28:53.015Z,114.40
2019-04-06T00:31:43.923Z,111.90
2019-04-06T00:34:16.282Z,116.57
2019-04-06T00:36:45.636Z,123.67
2019-04-06T00:39:15.092Z,113.50
2019-04-06T00:41:44.314Z,116.57
2019-04-06T00:44:13.718Z,115.67
2019-04-06T00:46:42.980Z,105.10
2019-04-06T00:49:15.359Z,123.17
2019-04-06T00:51:45.215Z,109.80
2019-04-06T00:54:17.003Z,116.00
2019-04-06T00:56:46.093Z,114.70
2019-04-06T00:59:15.851Z,119.23
2019-04-06T01:01:45.063Z,127.57
2019-04-06T01:04:17.453Z,120.13
2019-04-06T01:06:46.649Z,117.00
2019-04-06T01:09:16.153Z,115.70
2019-04-06T01:11:45.686Z,118.20
2019-04-06T01:14:14.953Z,86.07
2019-04-06T01:16:44.149Z,122.83
2019-04-06T01:19:13.703Z,125.37
2019-04-06T01:21:46.295Z,123.57
2019-04-06T01:24:22.596Z,118.83
2019-04-06T01:26:52.262Z,123.60
2019-04-06T01:29:21.632Z,126.53
2019-04-06T01:31:51.106Z,124.60
2019-04-06T01:34:20.324Z,118.43
2019-04-06T01:36:50.184Z,115.97
2019-04-06T01:39:19.733Z,116.93
2019-04-06T01:41:48.911Z,115.77
2019-04-06T01:44:18.019Z,118.67
2019-04-06T01:46:47.378Z,123.43
2019-04-06T01:49:17.270Z,115.67
2019-04-06T01:51:47.571Z,108.80
2019-04-06T01:54:17.094Z,107.67
2019-04-06T01:56:46.598Z,120.70
2019-04-06T01:59:16.439Z,123.10
2019-04-06T02:01:54.743Z,116.23
2019-04-06T02:04:24.182Z,116.63
2019-04-06T02:06:53.461Z,123.63
2019-04-06T02:09:22.966Z,131.57
2019-04-06T02:11:52.158Z,119.53
2019-04-06T02:14:21.465Z,117.80
2019-04-06T02:16:50.645Z,128.50
2019-04-06T02:19:20.087Z,121.77
2019-04-06T02:21:49.588Z,125.90
2019-04-06T02:24:19.295Z,124.70
2019-04-06T02:26:48.754Z,122.97
2019-04-06T02:29:18.608Z,130.23
2019-04-06T02:32:12.608Z,123.10
2019-04-06T02:34:59.996Z,125.10
2019-04-06T02:37:48.453Z,121.77
2019-04-06T02:40:33.584Z,125.93
2019-04-06T02:43:23.905Z,114.87
2019-04-06T02:45:53.556Z,117.60
2019-04-06T02:48:23.007Z,115.27
2019-04-06T02:50:52.099Z,113.87
2019-04-06T02:53:21.377Z,117.00
2019-04-06T02:55:50.722Z,102.03
2019-04-06T02:58:22.819Z,100.57
2019-04-06T03:00:51.120Z,109.00
2019-04-06T03:03:20.414Z,101.83
2019-04-06T03:05:49.980Z,101.07
2019-04-06T03:08:19.466Z,98.53
2019-04-06T03:10:48.557Z,103.43
2019-04-06T03:13:17.946Z,104.07
2019-04-06T03:15:46.933Z,98.27
2019-04-06T03:18:16.489Z,106.83
2019-04-06T03:20:45.640Z,104.13
2019-04-06T03:23:18.707Z,102.53
2019-04-06T03:25:48.092Z,100.10
2019-04-06T03:28:17.625Z,105.23
2019-04-06T03:30:46.867Z,108.90
2019-04-06T03:33:16.333Z,99.00
2019-04-06T03:35:48.537Z,103.97
2019-04-06T03:38:16.251Z,103.70
2019-04-06T03:40:45.867Z,103.93
2019-04-06T03:43:18.866Z,106.93
2019-04-06T03:45:48.373Z,106.03
2019-04-06T03:48:17.754Z,96.53
2019-04-06T03:50:47.781Z,109.63
2019-04-06T03:53:18.268Z,98.50
2019-04-06T03:55:47.627Z,98.83
2019-04-06T03:58:18.588Z,93.63
2019-04-06T04:00:48.583Z,100.43
2019-04-06T04:03:18.399Z,90.90
2019-04-06T04:05:48.347Z,94.50
2019-04-06T04:08:25.102Z,94.63
2019-04-06T04:10:56.148Z,92.83
2019-04-06T04:13:25.529Z,89.97
2019-04-06T04:15:56.945Z,90.50
2019-04-06T04:18:26.417Z,93.03
2019-04-06T04:20:56.173Z,99.10
2019-04-06T04:23:25.862Z,89.77
2019-04-06T04:25:58.443Z,97.27
2019-04-06T04:28:28.991Z,94.70
2019-04-06T04:31:01.282Z,90.03
2019-04-06T04:33:30.849Z,93.20
2019-04-06T04:36:00.207Z,87.60
2019-04-06T04:38:29.720Z,96.10
2019-04-06T04:41:01.993Z,93.17
2019-04-06T04:43:31.589Z,93.77
2019-04-06T04:46:00.850Z,103.23
2019-04-06T04:48:30.524Z,92.73
2019-04-06T04:51:00.271Z,92.27
2019-04-06T04:53:29.419Z,89.03
2019-04-06T04:55:59.477Z,93.73
2019-04-06T04:58:31.329Z,94.87
2019-04-06T05:01:01.109Z,78.57
2019-04-06T05:03:30.560Z,95.93
2019-04-06T05:05:59.724Z,95.87
2019-04-06T05:08:29.342Z,92.97
2019-04-06T05:11:01.729Z,95.40
2019-04-06T05:13:31.308Z,93.93
2019-04-06T05:16:17.707Z,97.17
2019-04-06T05:18:48.965Z,95.03
2019-04-06T05:21:18.900Z,97.23
2019-04-06T05:23:48.973Z,93.40
2019-04-06T05:26:18.555Z,89.50
2019-04-06T05:28:47.882Z,93.43
2019-04-06T05:31:19.750Z,93.67
2019-04-06T05:33:49.256Z,81.20
2019-04-06T05:36:18.644Z,163.63
2019-04-06T05:38:48.145Z,96.27
2019-04-06T05:41:18.660Z,93.77
2019-04-06T05:43:48.736Z,99.63
2019-04-06T05:46:18.297Z,83.53
2019-04-06T05:48:48.452Z,86.13
2019-04-06T05:51:21.239Z,89.77
2019-04-06T05:53:51.254Z,98.03
2019-04-06T05:56:21.020Z,93.23
2019-04-06T05:58:50.573Z,99.77
2019-04-06T06:01:20.070Z,74.30
2019-04-06T06:03:49.674Z,80.93
2019-04-06T06:06:18.936Z,86.80
2019-04-06T06:08:48.730Z,81.83
2019-04-06T06:11:18.277Z,84.30
2019-04-06T06:13:49.500Z,72.57
2019-04-06T06:16:19.205Z,86.97
2019-04-06T06:18:49.294Z,106.53
2019-04-06T06:21:18.814Z,106.93
2019-04-06T06:23:49.682Z,106.87
2019-04-06T06:26:19.083Z,115.30
2019-04-06T06:28:48.472Z,121.17
2019-04-06T06:31:20.447Z,110.27
2019-04-06T06:33:50.184Z,110.83
2019-04-06T06:36:19.380Z,76.53
2019-04-06T06:38:48.563Z,94.13
2019-04-06T06:41:18.359Z,103.20
2019-04-06T06:43:48.153Z,95.23
2019-04-06T06:46:17.564Z,88.60
2019-04-06T06:48:46.844Z,76.20
2019-04-06T06:51:16.369Z,74.70
2019-04-06T06:53:46.388Z,66.50
2019-04-06T06:56:16.383Z,77.97
2019-04-06T06:58:46.302Z,78.40
2019-04-06T07:01:16.112Z,79.87
2019-04-06T07:03:46.367Z,76.20
2019-04-06T07:06:16.201Z,82.20
2019-04-06T07:08:46.209Z,81.27
2019-04-06T07:11:15.922Z,77.73
2019-04-06T07:13:45.762Z,73.53
2019-04-06T07:16:15.104Z,76.87
2019-04-06T07:18:45.277Z,74.73
2019-04-06T07:21:16.816Z,77.23
2019-04-06T07:23:46.237Z,71.20
2019-04-06T07:26:16.410Z,71.70
2019-04-06T07:28:46.047Z,74.27
2019-04-06T07:31:15.942Z,67.23
2019-04-06T07:33:45.097Z,72.97
2019-04-06T07:36:14.610Z,67.17
2019-04-06T07:38:44.201Z,63.00
2019-04-06T07:41:14.188Z,63.97
2019-04-06T07:43:43.784Z,69.93
2019-04-06T07:46:13.144Z,65.13
2019-04-06T07:48:42.542Z,63.63
2019-04-06T07:51:12.112Z,66.47
2019-04-06T07:53:41.221Z,62.50
2019-04-06T07:56:10.779Z,63.33
2019-04-06T07:58:48.414Z,59.50
2019-04-06T08:01:11.057Z,65.13
2019-04-06T08:03:40.695Z,65.87
2019-04-06T08:06:09.887Z,64.93
2019-04-06T08:08:39.356Z,64.90
2019-04-06T08:11:08.790Z,62.37
2019-04-06T08:13:38.521Z,59.50
2019-04-06T08:16:08.431Z,59.93
2019-04-06T08:18:38.319Z,60.27
2019-04-06T08:21:08.168Z,57.07
2019-04-06T08:23:37.984Z,56.73
2019-04-06T08:26:07.960Z,55.10
2019-04-06T08:28:40.755Z,55.53
2019-04-06T08:31:10.255Z,58.13
2019-04-06T08:33:39.409Z,57.17
2019-04-06T08:36:08.742Z,57.43
2019-04-06T08:38:38.755Z,59.40
2019-04-06T08:41:08.606Z,59.00
2019-04-06T08:43:38.542Z,58.57
2019-04-06T08:46:08.221Z,59.00
2019-04-06T08:48:38.673Z,63.27
2019-04-06T08:51:08.467Z,53.67
2019-04-06T08:53:38.694Z,58.03
2019-04-06T08:56:08.135Z,54.70
2019-04-06T08:58:37.864Z,60.87
2019-04-06T09:01:10.516Z,56.27
2019-04-06T09:03:41.179Z,51.17
2019-04-06T09:06:10.605Z,50.07
2019-04-06T09:08:39.975Z,53.53
2019-04-06T09:11:10.016Z,50.43
2019-04-06T09:13:40.433Z,55.80
2019-04-06T09:16:09.814Z,56.70
2019-04-06T09:18:39.044Z,55.00
2019-04-06T09:21:08.966Z,56.73
2019-04-06T09:23:41.654Z,54.40
2019-04-06T09:26:11.376Z,57.40
2019-04-06T09:28:40.587Z,56.87
2019-04-06T09:31:09.928Z,56.77
2019-04-06T09:33:41.345Z,53.63
2019-04-06T09:36:11.482Z,56.57
2019-04-06T09:38:41.107Z,56.67
2019-04-06T09:41:10.569Z,53.73
2019-04-06T09:43:40.421Z,57.53
2019-04-06T09:46:25.982Z,56.77
2019-04-06T09:49:08.365Z,52.57
2019-04-06T09:52:14.833Z,63.97
2019-04-06T09:55:08.822Z,51.20
2019-04-06T09:58:02.544Z,51.47
2019-04-06T10:00:40.381Z,50.80
2019-04-06T10:03:31.405Z,48.43
2019-04-06T10:06:14.735Z,50.37
2019-04-06T10:09:02.001Z,50.40
2019-04-06T10:11:57.761Z,48.13
2019-04-06T10:14:49.708Z,52.77
2019-04-06T10:17:41.357Z,52.20
2019-04-06T10:20:42.591Z,52.33
2019-04-06T10:23:33.909Z,48.67
2019-04-06T10:26:41.064Z,46.67
2019-04-06T10:29:19.470Z,46.87
2019-04-06T10:32:09.364Z,46.23
2019-04-06T10:35:00.942Z,47.53
2019-04-06T10:37:58.793Z,43.90
2019-04-06T10:40:49.029Z,45.37
2019-04-06T10:43:39.012Z,49.70
2019-04-06T10:46:31.651Z,45.27
2019-04-06T10:49:26.391Z,41.13
2019-04-06T10:52:23.614Z,43.43
2019-04-06T10:55:17.815Z,43.90
2019-04-06T10:58:06.289Z,44.47
2019-04-06T11:00:53.697Z,38.30
2019-04-06T11:03:32.213Z,40.43
2019-04-06T11:06:22.128Z,39.03
2019-04-06T11:09:03.225Z,39.23
2019-04-06T11:12:00.823Z,38.07
2019-04-06T11:14:44.757Z,40.60
2019-04-06T11:17:34.860Z,38.73
2019-04-06T11:20:21.035Z,35.87
2019-04-06T11:23:09.430Z,35.20
2019-04-06T11:26:03.235Z,34.17
2019-04-06T11:28:39.743Z,35.40
2019-04-06T11:31:27.300Z,35.13
2019-04-06T11:34:13.979Z,33.00
2019-04-06T11:37:09.527Z,32.80
2019-04-06T11:39:52.419Z,32.53
2019-04-06T11:42:43.315Z,34.83
2019-04-06T11:45:18.461Z,31.97
2019-04-06T11:48:10.015Z,33.10
2019-04-06T11:50:53.888Z,33.77
2019-04-06T11:53:32.037Z,30.67
2019-04-06T11:56:18.738Z,29.73
2019-04-06T11:58:57.093Z,31.53
2019-04-06T12:01:30.753Z,25.77
2019-04-06T12:04:18.781Z,27.60
2019-04-06T12:07:21.735Z,28.77
2019-04-06T12:10:03.589Z,28.30
2019-04-06T12:12:48.283Z,28.20
2019-04-06T12:15:39.109Z,23.13
2019-04-06T12:18:22.039Z,22.43
2019-04-06T12:21:25.247Z,23.17
2019-04-06T12:24:19.460Z,24.07
2019-04-06T12:27:10.606Z,17.90
2019-04-06T12:30:05.121Z,20.50
2019-04-06T12:32:53.515Z,17.70
2019-04-06T12:35:41.747Z,21.37
2019-04-06T12:38:39.353Z,18.87
2019-04-06T12:41:30.706Z,18.70
2019-04-06T12:44:13.873Z,16.57
2019-04-06T12:46:58.591Z,18.47
2019-04-06T12:49:49.304Z,18.37
2019-04-06T12:52:37.296Z,16.93
2019-04-06T12:55:35.158Z,16.37
2019-04-06T12:58:35.282Z,16.80
2019-04-06T13:01:23.455Z,17.47
2019-04-06T13:04:17.350Z,16.77
2019-04-06T13:07:03.984Z,15.17
2019-04-06T13:09:55.470Z,16.43
2019-04-06T13:12:41.827Z,15.20
2019-04-06T13:15:35.559Z,14.60
2019-04-06T13:18:26.972Z,15.60
2019-04-06T13:21:18.525Z,15.03
2019-04-06T13:23:53.739Z,15.23
2019-04-06T13:26:44.599Z,14.70
2019-04-06T13:29:31.202Z,15.97
2019-04-06T13:32:17.921Z,14.77
2019-04-06T13:34:59.678Z,12.57
2019-04-06T13:37:52.581Z,12.30
2019-04-06T13:40:51.890Z,12.10
2019-04-06T13:43:34.509Z,13.53
2019-04-06T13:46:12.995Z,12.50
2019-04-06T13:48:55.759Z,11.87
2019-04-06T13:51:42.815Z,12.77
2019-04-06T13:54:30.001Z,11.83
2019-04-06T13:57:21.234Z,10.87
2019-04-06T13:59:57.341Z,10.37
2019-04-06T14:02:42.306Z,12.27
2019-04-06T14:05:32.027Z,8.73
2019-04-06T14:08:23.313Z,10.40
2019-04-06T14:11:14.379Z,10.47
2019-04-06T14:14:00.989Z,9.20
2019-04-06T14:16:55.273Z,10.03
2019-04-06T14:19:34.944Z,9.10
2019-04-06T14:22:18.478Z,15.23
2019-04-06T14:25:12.690Z,13.77
2019-04-06T14:28:00.058Z,12.17
2019-04-06T14:30:53.495Z,15.43
2019-04-06T14:33:40.779Z,14.17
2019-04-06T14:36:34.204Z,14.87
2019-04-06T14:39:21.215Z,14.77
2019-04-06T14:42:02.185Z,13.27
2019-04-06T14:45:00.171Z,13.37
2019-04-06T14:47:57.509Z,12.47
2019-04-06T14:50:55.063Z,11.90
2019-04-06T14:53:29.019Z,11.60
2019-04-06T14:56:32.294Z,12.60
2019-04-06T14:59:21.426Z,9.97
2019-04-06T15:02:07.255Z,13.47
2019-04-06T15:04:50.757Z,13.60
2019-04-06T15:07:26.336Z,12.63
2019-04-06T15:10:19.514Z,11.63
2019-04-06T15:13:16.694Z,12.20
2019-04-06T15:16:20.123Z,10.80
2019-04-06T15:19:23.539Z,12.37
2019-04-06T15:22:14.118Z,13.73
2019-04-06T15:25:08.278Z,13.80
2019-04-06T15:27:56.251Z,11.60
2019-04-06T15:30:50.467Z,13.83
2019-04-06T15:33:37.398Z,13.87
2019-04-06T15:36:35.040Z,11.17
2019-04-06T15:39:23.102Z,12.47
2019-04-06T15:42:14.231Z,14.33
2019-04-06T15:45:10.310Z,13.30
2019-04-06T15:48:07.508Z,16.10
2019-04-06T15:50:55.123Z,18.53
2019-04-06T15:53:52.234Z,23.00
2019-04-06T15:56:27.955Z,26.77
2019-04-06T15:59:22.023Z,30.67
2019-04-06T16:02:01.709Z,29.17
2019-04-06T16:04:44.651Z,28.67
2019-04-06T16:07:33.531Z,29.47
2019-04-06T16:10:27.388Z,28.73
2019-04-06T16:13:24.552Z,29.37
2019-04-06T16:16:01.826Z,31.17
2019-04-06T16:18:56.262Z,31.53
2019-04-06T16:21:47.738Z,32.37
2019-04-06T16:24:34.610Z,30.07
2019-04-06T16:27:17.231Z,31.57
2019-04-06T16:29:52.746Z,29.43
2019-04-06T16:32:46.903Z,30.03
2019-04-06T16:35:28.676Z,29.50
2019-04-06T16:38:16.995Z,27.67
2019-04-06T16:41:13.095Z,28.40
2019-04-06T16:44:02.436Z,25.87
2019-04-06T16:46:48.966Z,26.20
2019-04-06T16:49:46.013Z,28.37
2019-04-06T16:52:29.984Z,26.27
2019-04-06T16:55:09.130Z,24.90
2019-04-06T16:57:55.904Z,26.50
2019-04-06T17:00:51.411Z,25.93
2019-04-06T17:03:32.268Z,30.67
2019-04-06T17:06:09.716Z,31.40
2019-04-06T17:08:51.183Z,32.87
2019-04-06T17:11:42.233Z,29.87
2019-04-06T17:14:28.713Z,32.00
2019-04-06T17:17:15.576Z,32.73
2019-04-06T17:20:19.024Z,30.10
2019-04-06T17:23:01.315Z,32.20
2019-04-06T17:25:48.592Z,34.57
2019-04-06T17:28:33.979Z,29.87
2019-04-06T17:31:34.671Z,30.17
2019-04-06T17:34:24.042Z,29.97
2019-04-06T17:37:20.229Z,32.10
2019-04-06T17:40:14.187Z,32.23
2019-04-06T17:42:56.315Z,26.43
2019-04-06T17:45:39.704Z,28.23
2019-04-06T17:48:29.732Z,35.83
2019-04-06T17:51:20.297Z,24.63
2019-04-06T17:54:08.795Z,25.10
2019-04-06T17:56:49.921Z,19.00
2019-04-06T17:59:47.126Z,18.13
2019-04-06T18:02:48.323Z,18.93
2019-04-06T18:05:27.206Z,19.00
2019-04-06T18:08:27.720Z,15.87
2019-04-06T18:11:04.220Z,17.40
2019-04-06T18:13:54.075Z,17.40
2019-04-06T18:16:26.395Z,17.73
2019-04-06T18:18:55.471Z,16.43
2019-04-06T18:21:24.726Z,17.70
2019-04-06T18:23:54.289Z,15.47
2019-04-06T18:26:24.588Z,19.67
2019-04-06T18:28:54.116Z,17.47
2019-04-06T18:31:40.481Z,17.93
2019-04-06T18:34:09.382Z,16.97
2019-04-06T18:36:49.166Z,16.27
2019-04-06T18:39:19.432Z,18.30
2019-04-06T18:41:51.977Z,17.87
2019-04-06T18:44:23.246Z,18.50
2019-04-06T18:46:52.903Z,19.30
2019-04-06T18:49:22.747Z,17.30
2019-04-06T18:51:52.437Z,19.27
2019-04-06T18:54:22.616Z,17.53
2019-04-06T18:56:52.470Z,19.80
2019-04-06T18:59:21.721Z,19.07
2019-04-06T19:01:52.347Z,18.27
2019-04-06T19:04:21.441Z,18.57
2019-04-06T19:06:52.574Z,18.73
2019-04-06T19:09:24.071Z,17.60
2019-04-06T19:11:56.407Z,18.27
2019-04-06T19:14:24.643Z,18.37
2019-04-06T19:16:54.091Z,18.50
2019-04-06T19:19:25.070Z,18.50
2019-04-06T19:21:54.598Z,17.90
2019-04-06T19:24:27.133Z,19.53
2019-04-06T19:26:56.088Z,18.93
2019-04-06T19:29:25.383Z,19.10
2019-04-06T19:31:54.402Z,19.67
2019-04-06T19:34:24.098Z,23.43
2019-04-06T19:36:53.621Z,25.70
2019-04-06T19:39:25.706Z,28.30
2019-04-06T19:41:54.645Z,29.00
2019-04-06T19:44:24.312Z,27.90
2019-04-06T19:46:53.517Z,30.17
2019-04-06T19:49:23.136Z,30.93
2019-04-06T19:51:53.263Z,28.17
2019-04-06T19:54:25.754Z,33.73
2019-04-06T19:56:55.155Z,32.57
2019-04-06T19:59:24.633Z,31.23
2019-04-06T20:01:54.783Z,29.07
2019-04-06T20:04:24.534Z,27.17
2019-04-06T20:06:53.839Z,25.83
2019-04-06T20:09:23.133Z,26.27
2019-04-06T20:12:04.149Z,25.60
2019-04-06T20:14:27.461Z,26.43
2019-04-06T20:16:56.553Z,25.43
2019-04-06T20:19:25.686Z,29.90
2019-04-06T20:21:55.512Z,26.00
2019-04-06T20:24:25.152Z,29.60
2019-04-06T20:26:54.520Z,25.73
2019-04-06T20:29:23.829Z,26.70
2019-04-06T20:31:54.287Z,26.93
2019-04-06T20:34:23.881Z,28.37
2019-04-06T20:36:56.865Z,29.47
2019-04-06T20:39:28.752Z,28.67
2019-04-06T20:42:00.922Z,28.47
2019-04-06T20:44:30.217Z,28.53
2019-04-06T20:46:59.519Z,28.87
2019-04-06T20:49:28.602Z,28.83
2019-04-06T20:51:59.081Z,28.90
2019-04-06T20:54:28.313Z,30.33
2019-04-06T20:56:58.942Z,29.27
2019-04-06T20:59:28.358Z,27.63
2019-04-06T21:01:57.851Z,30.93
2019-04-06T21:04:26.989Z,27.10
2019-04-06T21:06:56.364Z,28.97
2019-04-06T21:09:25.792Z,29.63
2019-04-06T21:11:55.142Z,29.97
2019-04-06T21:14:26.353Z,29.03
2019-04-06T21:16:55.671Z,31.00
2019-04-06T21:19:26.040Z,30.23
2019-04-06T21:21:59.005Z,30.03
2019-04-06T21:24:28.740Z,32.87
2019-04-06T21:26:57.833Z,29.80
2019-04-06T21:29:27.051Z,31.20
2019-04-06T21:31:58.663Z,33.17
2019-04-06T21:34:28.137Z,29.53
2019-04-06T21:36:57.500Z,31.87
2019-04-06T21:39:30.628Z,31.97
2019-04-06T21:41:59.775Z,31.17
2019-04-06T21:46:57.490Z,32.03
2019-04-06T21:49:26.819Z,29.80
2019-04-06T21:51:57.338Z,32.20
2019-04-06T21:54:29.500Z,31.03
2019-04-06T21:56:58.502Z,31.37
2019-04-06T21:59:27.765Z,33.30
2019-04-06T22:01:57.019Z,31.07
2019-04-06T22:04:27.570Z,32.87
2019-04-06T22:06:57.361Z,32.30
2019-04-06T22:09:27.157Z,32.87
2019-04-06T22:11:56.285Z,33.33
2019-04-06T22:14:25.919Z,36.30
2019-04-06T22:16:57.266Z,34.37
2019-04-06T22:19:26.842Z,35.53
2019-04-06T22:21:56.187Z,35.83
2019-04-06T22:24:27.020Z,34.60
2019-04-06T22:27:00.063Z,36.23
2019-04-06T22:29:29.821Z,36.93
2019-04-06T22:31:59.583Z,34.77
2019-04-06T22:34:36.318Z,32.47
2019-04-06T22:36:59.506Z,34.50
2019-04-06T22:39:28.591Z,34.00
2019-04-06T22:41:58.272Z,35.83
2019-04-06T22:44:27.326Z,37.50
2019-04-06T22:46:56.808Z,34.90
2019-04-06T22:49:28.697Z,35.73
2019-04-06T22:51:58.428Z,35.17
2019-04-06T22:54:27.747Z,40.30
2019-04-06T22:56:56.806Z,35.23
2019-04-06T22:59:25.981Z,37.20
2019-04-06T23:01:57.927Z,37.67
2019-04-06T23:04:49.531Z,38.97
2019-04-06T23:07:14.687Z,35.63
2019-04-06T23:09:43.971Z,37.83
2019-04-06T23:12:12.983Z,43.20
2019-04-06T23:14:42.078Z,36.57
2019-04-06T23:17:11.872Z,36.10
2019-04-06T23:19:40.983Z,37.67
2019-04-06T23:22:10.357Z,40.20
2019-04-06T23:24:39.757Z,36.37
2019-04-06T23:27:08.838Z,36.23
2019-04-06T23:29:38.025Z,37.13
2019-04-06T23:32:07.193Z,38.50
2019-04-06T23:34:36.228Z,38.60
2019-04-06T23:37:05.304Z,37.07
2019-04-06T23:39:34.409Z,38.80
2019-04-06T23:42:03.532Z,37.13
2019-04-06T23:44:32.986Z,38.60
2019-04-06T23:47:02.234Z,40.60
2019-04-06T23:49:31.368Z,38.37
2019-04-06T23:52:01.290Z,38.07
2019-04-06T23:54:30.410Z,37.73
2019-04-06T23:56:59.655Z,41.20
2019-04-06T23:59:28.799Z,38.73
